Huvudsida
METAR-TAF:

METAR-TAF

Flygplatser :

Vardø flygplats. Svartnes

Vardø, Norge

latitud: 70-21N, longitud: 031-03E, höjd: 12 m

Aktuellt väderrapport

Denna rapport gjordes för 21 minuter sedan, klockan 20:20 UTC
Vind 16 kt från syd/sydost
Temperatur 0°C
Fuktighet 86%
Tryck 1016 hPa
Sikt: 9000 m

METAR: ENSS 232020Z AUTO 15016KT 9000 OVC012/// M00/M02 Q1016 RMK WIND 0500FT 15017KT

Tid: 22:41 (20:41 UTC)

Väderprognos

Denna rapport gjordes för 6 timmar och 41 minuter sedan, klockan 14:00 UTC
Prognos gäller från 23 kl. 15 UTC till 23 kl. 21 UTC
Vind 20 kt från sydost
Sikt 10 km eller mer
Brutna moln på en höjd av 1500 ft
lätt snö
Temporärt
från 23 kl. 15 UTC till 23 kl. 21 UTC
Sikt: 2000 m
Brutna moln på en höjd av 900 ft
snö
Sannolikhet 30% :
Temporärt
från 23 kl. 18 UTC till 23 kl. 21 UTC
(lätt) underkylt, regn,

TAF: ENSS 231400Z 2315/2321 14020KT 9999 -SN BKN015 TEMPO 2315/2321 2000 SN BKN009 PROB30 TEMPO 2318/2321 -FZRA

Aktuella väderrapporter och prognoser från 4000 flygplatser (METAR- och TAF-rapporter).

De tillgängliga stationerna syns som gula och röda prickar på kartan.

För musen över prickarna för att se namnen på stationerna.

Klicka sedan för att få väderrapporter och prognoser.

För att ändra kartan: Klicka på de gröna knapparna med ett svart kors på för att zooma in; den gröna knappen med ett streck på för att zooma ut; eller på de gröna pilarna för angränsande kartor.


METAR-TAF: